Time;durP1;ratioP1;P1;durP2;ratioP2;P2;SDS_P1;SDS_P2;PMS_P1;PMS_P2;Temp;Humidity;BMP_temperature;BMP_pressure;BME280_temperature;BME280_humidity;BME280_pressure;Samples;Min_cycle;Max_cycle;Signal;HPM_P1;HPM_P2
2024/01/14 00:00:10;;;;;;;109.80;49.78;;;;;;;-1.28;100.00;99794.22;5057364;28;20117;-83
2024/01/14 00:02:38;;;;;;;117.15;49.63;;;;;;;-1.28;100.00;99789.06;5059734;28;20142;-83
2024/01/14 00:05:07;;;;;;;109.28;49.15;;;;;;;-1.29;100.00;99792.53;5059422;28;20036;-82
2024/01/14 00:07:32;;;;;;;70.88;49.30;;;;;;;-1.31;100.00;99799.53;5061743;28;20036;-82
2024/01/14 00:09:58;;;;;;;73.93;48.40;;;;;;;-1.30;100.00;99785.72;5032252;28;20391;-81
2024/01/14 00:12:25;;;;;;;73.13;46.47;;;;;;;-1.31;100.00;99778.84;5058051;28;20118;-81
2024/01/14 00:14:51;;;;;;;114.18;51.20;;;;;;;-1.34;100.00;99772.94;5057534;28;20037;-80
2024/01/14 00:17:16;;;;;;;84.47;48.92;;;;;;;-1.35;100.00;99766.06;5042438;28;20028;-82
2024/01/14 00:19:42;;;;;;;76.30;50.55;;;;;;;-1.32;100.00;99761.63;5054118;28;20519;-81
2024/01/14 00:22:08;;;;;;;100.88;50.03;;;;;;;-1.31;100.00;99745.19;5061093;28;20461;-81
2024/01/14 00:24:34;;;;;;;74.72;48.38;;;;;;;-1.38;100.00;99759.28;5042602;28;20035;-83
2024/01/14 00:26:59;;;;;;;97.38;49.65;;;;;;;-1.44;100.00;99749.19;5060626;28;20056;-83
2024/01/14 00:29:25;;;;;;;66.30;48.60;;;;;;;-1.64;100.00;99743.97;5060785;28;20056;-82
2024/01/14 00:31:50;;;;;;;68.57;49.95;;;;;;;-1.67;100.00;99744.09;5057344;28;20040;-83
2024/01/14 00:34:16;;;;;;;69.50;48.72;;;;;;;-1.69;100.00;99740.72;5060905;28;20068;-81
2024/01/14 00:36:41;;;;;;;84.47;49.72;;;;;;;-1.78;100.00;99736.78;5041055;28;20025;-81
2024/01/14 00:39:07;;;;;;;80.68;51.83;;;;;;;-1.81;100.00;99738.63;5059777;28;20067;-83
2024/01/14 00:41:33;;;;;;;85.28;55.60;;;;;;;-1.80;100.00;99743.75;5057787;28;20024;-82
2024/01/14 00:44:00;;;;;;;114.07;55.13;;;;;;;-1.79;100.00;99737.66;5058310;28;20044;-82
2024/01/14 00:46:26;;;;;;;143.93;52.08;;;;;;;-1.92;100.00;99738.22;5052698;28;20142;-81
2024/01/14 00:48:51;;;;;;;105.57;53.83;;;;;;;-1.92;100.00;99725.28;5055070;28;20036;-81
2024/01/14 00:51:17;;;;;;;89.10;53.33;;;;;;;-1.92;100.00;99722.69;5059383;28;20036;-81
2024/01/14 00:53:42;;;;;;;102.50;55.58;;;;;;;-1.87;100.00;99716.44;5060688;28;20416;-81
2024/01/14 00:56:07;;;;;;;91.82;53.35;;;;;;;-1.89;100.00;99707.06;5054794;28;20061;-82
2024/01/14 00:58:33;;;;;;;98.57;55.38;;;;;;;-1.94;100.00;99699.47;5059702;28;20484;-81
2024/01/14 01:00:58;;;;;;;80.78;53.17;;;;;;;-2.00;100.00;99709.25;5059493;28;20431;-82
2024/01/14 01:03:24;;;;;;;76.10;52.38;;;;;;;-2.09;100.00;99700.94;5027896;28;20400;-81
2024/01/14 01:05:49;;;;;;;78.30;55.88;;;;;;;-2.07;100.00;99698.28;5057298;28;20082;-82
2024/01/14 01:08:15;;;;;;;83.50;56.97;;;;;;;-2.01;100.00;99704.97;5060940;28;20347;-82
2024/01/14 01:10:41;;;;;;;78.82;55.15;;;;;;;-2.07;100.00;99695.72;5058609;28;20438;-83
2024/01/14 01:13:06;;;;;;;79.72;55.15;;;;;;;-1.96;100.00;99690.09;5059336;28;20115;-84
2024/01/14 01:15:32;;;;;;;77.90;54.70;;;;;;;-1.89;100.00;99692.41;5060537;28;20052;-83
2024/01/14 01:17:57;;;;;;;80.68;54.88;;;;;;;-1.90;100.00;99679.50;5058366;28;20032;-83
2024/01/14 01:20:22;;;;;;;83.10;54.30;;;;;;;-1.84;100.00;99679.28;5059614;28;20047;-83
2024/01/14 01:22:48;;;;;;;78.35;53.85;;;;;;;-1.91;100.00;99678.66;5058499;28;20123;-81
2024/01/14 01:25:14;;;;;;;73.55;51.60;;;;;;;-1.97;100.00;99672.91;5060855;28;20107;-81
2024/01/14 01:27:39;;;;;;;74.57;52.88;;;;;;;-1.95;100.00;99671.09;5060443;28;20481;-80
2024/01/14 01:30:06;;;;;;;92.35;54.72;;;;;;;-2.00;100.00;99675.63;5063748;28;20035;-80
2024/01/14 01:32:31;;;;;;;76.07;52.38;;;;;;;-2.08;100.00;99676.75;5065095;28;20460;-80
2024/01/14 01:34:56;;;;;;;73.70;51.22;;;;;;;-1.96;100.00;99679.75;5047217;28;20039;-81
2024/01/14 01:37:22;;;;;;;76.53;53.65;;;;;;;-1.89;100.00;99681.19;5061582;28;20354;-82
2024/01/14 01:39:47;;;;;;;78.30;53.35;;;;;;;-1.86;100.00;99675.88;5064375;28;20137;-82
2024/01/14 01:42:12;;;;;;;155.57;54.35;;;;;;;-1.85;100.00;99682.75;5061578;28;20089;-81
2024/01/14 01:44:38;;;;;;;93.30;51.42;;;;;;;-2.03;100.00;99667.97;5062682;28;20025;-81
2024/01/14 01:47:04;;;;;;;75.18;52.53;;;;;;;-2.09;100.00;99669.06;5062412;28;20381;-80
2024/01/14 01:49:31;;;;;;;74.18;53.08;;;;;;;-2.12;100.00;99659.66;5061680;28;20028;-81
2024/01/14 01:51:59;;;;;;;75.93;53.83;;;;;;;-2.08;100.00;99661.25;5045214;28;20041;-81
2024/01/14 01:54:27;;;;;;;107.88;56.90;;;;;;;-2.01;100.00;99671.34;5060884;28;20362;-82
2024/01/14 01:56:54;;;;;;;90.82;54.75;;;;;;;-2.03;100.00;99663.66;5061731;28;20354;-81
2024/01/14 01:59:20;;;;;;;77.90;55.30;;;;;;;-1.97;100.00;99655.66;5053155;28;20403;-82
2024/01/14 02:01:47;;;;;;;81.00;55.63;;;;;;;-1.89;100.00;99656.19;5042691;28;20036;-83
2024/01/14 02:04:13;;;;;;;83.47;55.95;;;;;;;-1.83;100.00;99649.91;5059146;28;20130;-83
2024/01/14 02:06:40;;;;;;;75.63;53.97;;;;;;;-1.79;100.00;99646.28;5062492;28;20525;-82
2024/01/14 02:09:07;;;;;;;86.05;55.28;;;;;;;-1.71;100.00;99649.41;5052206;28;20032;-83
2024/01/14 02:11:36;;;;;;;82.32;53.75;;;;;;;-1.72;100.00;99639.97;5043635;28;20044;-82
2024/01/14 02:14:03;;;;;;;94.57;55.40;;;;;;;-1.69;100.00;99642.41;5061523;28;20047;-82
2024/01/14 02:16:28;;;;;;;83.78;54.08;;;;;;;-1.68;100.00;99637.19;5042702;28;20029;-81
2024/01/14 02:18:54;;;;;;;89.40;54.78;;;;;;;-1.67;100.00;99635.44;5062936;28;20040;-81
2024/01/14 02:21:22;;;;;;;103.78;54.40;;;;;;;-1.65;100.00;99638.81;5060064;28;20033;-82
2024/01/14 02:23:55;;;;;;;95.82;55.50;;;;;;;-1.65;100.00;99629.28;5063147;28;20028;-82
2024/01/14 02:26:21;;;;;;;96.00;53.95;;;;;;;-1.63;100.00;99616.28;5058267;28;20032;-81
2024/01/14 02:28:48;;;;;;;81.20;53.42;;;;;;;-1.57;100.00;99625.53;5059660;28;20491;-81
2024/01/14 02:31:14;;;;;;;110.25;55.88;;;;;;;-1.60;100.00;99620.50;5062385;28;20082;-82
2024/01/14 02:33:40;;;;;;;92.43;56.53;;;;;;;-1.59;100.00;99623.00;5060819;28;20123;-82
2024/01/14 02:36:05;;;;;;;92.03;54.65;;;;;;;-1.59;100.00;99617.81;5060774;28;20439;-83
2024/01/14 02:38:31;;;;;;;92.32;55.10;;;;;;;-1.56;100.00;99620.28;5043209;28;20087;-82
2024/01/14 02:40:56;;;;;;;110.07;55.25;;;;;;;-1.53;100.00;99617.56;5060033;28;20033;-82
2024/01/14 02:43:22;;;;;;;100.30;52.88;;;;;;;-1.68;100.00;99615.63;5059649;28;20107;-82
2024/01/14 02:45:47;;;;;;;97.90;51.53;;;;;;;-1.68;100.00;99607.88;5062908;28;20067;-83
2024/01/14 02:48:12;;;;;;;110.07;55.35;;;;;;;-1.63;100.00;99605.09;5062936;28;20845;-82
2024/01/14 02:50:38;;;;;;;137.02;53.58;;;;;;;-1.68;100.00;99607.88;5061286;28;20032;-82
2024/01/14 02:53:04;;;;;;;93.00;54.85;;;;;;;-1.78;100.00;99611.75;5059111;28;20048;-81
2024/01/14 02:55:29;;;;;;;192.20;57.22;;;;;;;-1.80;100.00;99603.22;5060168;28;20032;-81
2024/01/14 02:57:55;;;;;;;95.28;54.97;;;;;;;-1.85;100.00;99607.75;5042325;28;20021;-81
2024/01/14 03:00:21;;;;;;;130.75;56.60;;;;;;;-1.82;100.00;99605.84;5062336;28;20029;-81
2024/01/14 03:02:46;;;;;;;131.23;56.10;;;;;;;-1.86;100.00;99598.31;5059403;28;20037;-82
2024/01/14 03:05:12;;;;;;;122.15;57.30;;;;;;;-1.86;100.00;99593.13;5061235;28;20044;-81
2024/01/14 03:07:38;;;;;;;89.93;55.20;;;;;;;-1.88;100.00;99592.34;5060621;28;20028;-81
2024/01/14 03:10:04;;;;;;;80.82;55.33;;;;;;;-1.95;100.00;99593.53;5059783;28;20116;-80
2024/01/14 03:12:29;;;;;;;77.95;54.47;;;;;;;-1.96;100.00;99591.84;5061372;28;20116;-80
2024/01/14 03:14:54;;;;;;;78.13;54.10;;;;;;;-1.87;100.00;99581.09;5058328;28;20029;-81
2024/01/14 03:17:20;;;;;;;81.68;54.65;;;;;;;-1.80;100.00;99567.00;5027417;28;20029;-79
2024/01/14 03:19:45;;;;;;;87.13;53.85;;;;;;;-1.80;100.00;99567.00;5058805;28;20075;-80
2024/01/14 03:22:10;;;;;;;97.70;54.22;;;;;;;-1.74;100.00;99571.91;5060753;28;20132;-80
2024/01/14 03:24:36;;;;;;;138.75;54.35;;;;;;;-1.77;100.00;99572.06;5060460;28;20028;-82
2024/01/14 03:27:01;;;;;;;104.95;55.17;;;;;;;-1.87;100.00;99565.56;5042498;28;20037;-82
2024/01/14 03:29:27;;;;;;;88.28;55.70;;;;;;;-1.83;100.00;99569.72;5062561;28;20048;-81
2024/01/14 03:31:52;;;;;;;85.00;54.60;;;;;;;-1.80;100.00;99561.81;5059780;28;20358;-82
2024/01/14 03:34:18;;;;;;;118.53;52.85;;;;;;;-2.08;100.00;99573.34;5062877;28;20032;-83
2024/01/14 03:36:43;;;;;;;83.78;51.78;;;;;;;-2.23;100.00;99568.78;5060247;28;20040;-81
2024/01/14 03:39:10;;;;;;;92.97;54.63;;;;;;;-2.02;100.00;99566.22;5042968;28;20033;-83
2024/01/14 03:41:37;;;;;;;78.28;53.55;;;;;;;-1.89;100.00;99562.25;5060551;28;20028;-81
2024/01/14 03:44:02;;;;;;;87.75;55.13;;;;;;;-1.89;100.00;99557.06;5059936;28;20126;-82
2024/01/14 03:46:28;;;;;;;120.55;53.13;;;;;;;-1.97;100.00;99570.31;5061591;28;20021;-81
2024/01/14 03:48:53;;;;;;;94.00;52.53;;;;;;;-1.84;100.00;99558.53;5058381;28;20041;-83
2024/01/14 03:51:19;;;;;;;98.47;51.55;;;;;;;-1.84;100.00;99552.53;5061441;28;20055;-82
2024/01/14 03:53:44;;;;;;;75.97;49.20;;;;;;;-1.93;100.00;99548.56;5058940;28;20045;-82
2024/01/14 03:56:09;;;;;;;89.10;51.63;;;;;;;-1.96;100.00;99556.47;5060429;28;20055;-83
2024/01/14 03:58:36;;;;;;;185.13;52.35;;;;;;;-2.00;100.00;99554.09;5060581;28;20082;-82
2024/01/14 04:01:02;;;;;;;77.85;51.50;;;;;;;-2.05;100.00;99559.44;5059437;28;20494;-82
2024/01/14 04:03:27;;;;;;;82.53;53.83;;;;;;;-2.01;100.00;99563.59;5043536;28;20028;-81
2024/01/14 04:05:53;;;;;;;81.30;55.78;;;;;;;-1.96;100.00;99558.22;5057586;28;20025;-82
2024/01/14 04:08:18;;;;;;;78.28;54.70;;;;;;;-1.85;100.00;99559.44;5044178;28;20054;-82
2024/01/14 04:10:43;;;;;;;87.30;55.72;;;;;;;-1.77;100.00;99556.53;5058905;28;20424;-82
2024/01/14 04:13:09;;;;;;;96.40;53.88;;;;;;;-1.76;100.00;99551.28;5060168;28;20040;-82
2024/01/14 04:15:34;;;;;;;98.40;54.08;;;;;;;-1.82;100.00;99542.94;5060070;28;20381;-82
2024/01/14 04:18:00;;;;;;;104.30;55.25;;;;;;;-1.88;100.00;99543.19;5039799;28;20120;-81
2024/01/14 04:20:25;;;;;;;105.90;53.88;;;;;;;-1.93;100.00;99530.47;5058238;28;20112;-81
2024/01/14 04:22:51;;;;;;;99.28;54.75;;;;;;;-1.97;100.00;99541.03;5060059;28;20032;-81
2024/01/14 04:25:16;;;;;;;92.15;53.72;;;;;;;-1.97;100.00;99543.59;5060508;28;20534;-82
2024/01/14 04:27:42;;;;;;;116.53;54.67;;;;;;;-1.96;100.00;99545.28;5057929;28;20033;-82
2024/01/14 04:30:08;;;;;;;88.28;52.97;;;;;;;-1.95;100.00;99550.41;5058551;28;20083;-81
2024/01/14 04:32:34;;;;;;;82.70;54.53;;;;;;;-1.95;100.00;99541.81;5062945;28;20036;-80
2024/01/14 04:34:59;;;;;;;77.25;54.00;;;;;;;-1.86;100.00;99549.16;5057445;28;20053;-81
2024/01/14 04:37:24;;;;;;;80.20;54.20;;;;;;;-1.78;100.00;99544.50;5062185;28;20027;-81
2024/01/14 04:39:50;;;;;;;82.05;52.35;;;;;;;-1.78;100.00;99544.50;5039817;28;20469;-81
2024/01/14 04:42:15;;;;;;;78.50;51.55;;;;;;;-1.83;100.00;99543.88;5060443;28;20032;-80
2024/01/14 04:44:41;;;;;;;81.40;51.67;;;;;;;-1.90;100.00;99545.03;5058262;28;20060;-82
2024/01/14 04:47:06;;;;;;;91.38;50.85;;;;;;;-1.88;100.00;99544.03;5058983;28;20125;-81
2024/01/14 04:49:32;;;;;;;86.80;52.25;;;;;;;-1.92;100.00;99541.66;5059736;28;20448;-82
2024/01/14 04:51:57;;;;;;;80.40;52.90;;;;;;;-1.81;100.00;99540.28;5039118;28;20037;-81
2024/01/14 04:54:23;;;;;;;103.65;52.53;;;;;;;-1.85;100.00;99538.75;5060780;28;20044;-81
2024/01/14 04:56:48;;;;;;;92.57;51.45;;;;;;;-1.98;100.00;99542.75;5057068;28;20039;-83
2024/01/14 04:59:14;;;;;;;77.72;51.13;;;;;;;-1.85;100.00;99532.75;5059738;28;20036;-83
2024/01/14 05:01:39;;;;;;;91.85;54.63;;;;;;;-1.79;100.00;99528.16;5060051;28;20024;-81
2024/01/14 05:04:04;;;;;;;83.00;52.95;;;;;;;-1.70;100.00;99527.72;5062209;28;20051;-80
2024/01/14 05:06:30;;;;;;;72.10;51.42;;;;;;;-1.69;100.00;99528.56;5063485;28;20025;-81
2024/01/14 05:08:55;;;;;;;75.90;51.40;;;;;;;-1.65;100.00;99528.38;5060749;28;20028;-81
2024/01/14 05:11:21;;;;;;;77.20;50.83;;;;;;;-1.79;100.00;99532.47;5064228;28;20043;-81
2024/01/14 05:13:47;;;;;;;79.65;51.05;;;;;;;-1.83;100.00;99525.75;5061512;28;20063;-80
2024/01/14 05:16:13;;;;;;;85.03;51.38;;;;;;;-2.08;100.00;99534.56;5063564;28;20037;-82
2024/01/14 05:18:38;;;;;;;81.50;50.83;;;;;;;-2.04;100.00;99521.50;5044575;28;20086;-81
2024/01/14 05:21:06;;;;;;;71.32;51.60;;;;;;;-1.92;100.00;99520.97;5062088;28;20043;-81
2024/01/14 05:23:31;;;;;;;72.93;50.58;;;;;;;-1.95;100.00;99515.94;5063403;28;20142;-81
2024/01/14 05:25:57;;;;;;;67.05;49.00;;;;;;;-1.91;100.00;99522.66;5061312;28;20028;-82
2024/01/14 05:28:22;;;;;;;67.43;49.40;;;;;;;-1.87;100.00;99524.19;5064891;28;20035;-79
2024/01/14 05:30:48;;;;;;;65.80;47.33;;;;;;;-2.00;100.00;99517.91;5043192;28;20040;-80
2024/01/14 05:33:15;;;;;;;64.88;48.25;;;;;;;-1.90;100.00;99508.81;5045975;28;20505;-82
2024/01/14 05:35:40;;;;;;;66.28;48.28;;;;;;;-1.80;100.00;99510.94;5044953;28;20017;-81
2024/01/14 05:38:05;;;;;;;70.05;48.65;;;;;;;-1.74;100.00;99500.31;5061355;28;20488;-82
2024/01/14 05:40:32;;;;;;;65.97;47.95;;;;;;;-1.81;100.00;99492.91;5062128;28;20041;-81
2024/01/14 05:42:57;;;;;;;69.53;48.90;;;;;;;-1.77;100.00;99494.47;5064304;28;20047;-82
2024/01/14 05:45:23;;;;;;;70.10;49.58;;;;;;;-1.72;100.00;99492.50;5061225;28;20029;-82
2024/01/14 05:47:48;;;;;;;67.13;48.38;;;;;;;-1.73;100.00;99499.44;5064010;28;20062;-82
2024/01/14 05:50:13;;;;;;;65.35;47.63;;;;;;;-1.69;100.00;99502.69;5061882;28;20457;-82
2024/01/14 05:52:39;;;;;;;62.40;46.78;;;;;;;-1.70;100.00;99512.22;5063157;28;20041;-82
2024/01/14 05:55:05;;;;;;;64.13;47.13;;;;;;;-1.75;100.00;99513.31;5064097;28;20040;-82
2024/01/14 05:57:31;;;;;;;61.50;48.25;;;;;;;-1.79;100.00;99522.13;5062753;28;20035;-79
2024/01/14 05:59:57;;;;;;;66.35;48.53;;;;;;;-1.95;100.00;99516.78;5067113;28;20032;-81
2024/01/14 06:02:24;;;;;;;70.30;48.97;;;;;;;-1.94;100.00;99517.63;5061225;28;20029;-81
2024/01/14 06:04:49;;;;;;;69.65;52.03;;;;;;;-1.91;100.00;99507.97;5061194;28;20033;-80
2024/01/14 06:07:14;;;;;;;65.82;50.45;;;;;;;-1.83;100.00;99518.00;5064302;28;20025;-82
2024/01/14 06:09:40;;;;;;;72.78;52.47;;;;;;;-1.70;100.00;99526.88;5064106;28;20499;-80
2024/01/14 06:12:06;;;;;;;68.60;50.28;;;;;;;-1.66;100.00;99521.53;5048281;28;20033;-82
2024/01/14 06:14:32;;;;;;;67.22;50.63;;;;;;;-1.64;100.00;99529.22;5064450;28;20043;-80
2024/01/14 06:16:57;;;;;;;65.32;48.38;;;;;;;-1.68;100.00;99525.09;5061664;28;20029;-81
2024/01/14 06:19:23;;;;;;;67.07;49.10;;;;;;;-1.66;100.00;99531.03;5061685;28;20029;-81
2024/01/14 06:21:48;;;;;;;65.30;47.90;;;;;;;-1.57;100.00;99530.63;5064655;28;20028;-81
2024/01/14 06:24:14;;;;;;;61.92;46.03;;;;;;;-1.49;100.00;99525.97;5062602;28;20101;-81
2024/01/14 06:26:39;;;;;;;62.45;46.90;;;;;;;-1.48;100.00;99524.22;5063387;28;20036;-81
2024/01/14 06:29:05;;;;;;;61.55;46.10;;;;;;;-1.51;100.00;99521.75;5062455;28;20157;-81
2024/01/14 06:31:31;;;;;;;61.50;45.05;;;;;;;-1.54;100.00;99535.69;5063679;28;20035;-82
2024/01/14 06:33:56;;;;;;;58.08;43.70;;;;;;;-1.64;100.00;99531.78;5060487;28;20040;-81
2024/01/14 06:36:22;;;;;;;59.58;45.85;;;;;;;-1.67;100.00;99531.94;5060647;28;20032;-81
2024/01/14 06:38:47;;;;;;;62.83;46.75;;;;;;;-1.71;100.00;99526.03;5064561;28;20487;-82
2024/01/14 06:41:20;;;;;;;61.05;45.58;;;;;;;-1.72;100.00;99531.31;5061098;28;20136;-81
2024/01/14 06:43:46;;;;;;;59.03;45.70;;;;;;;-1.81;100.00;99523.94;5063669;28;20044;-82
2024/01/14 06:46:12;;;;;;;58.65;43.42;;;;;;;-1.75;100.00;99510.72;5057379;28;20044;-82
2024/01/14 06:48:38;;;;;;;58.38;44.15;;;;;;;-1.74;100.00;99520.19;5061381;28;20028;-81
2024/01/14 06:51:04;;;;;;;54.35;44.40;;;;;;;-1.76;100.00;99528.00;5061498;28;20029;-82
2024/01/14 06:53:29;;;;;;;56.50;43.50;;;;;;;-1.77;100.00;99525.50;5063519;28;20064;-83
2024/01/14 06:55:55;;;;;;;58.72;44.75;;;;;;;-1.79;100.00;99512.63;5060825;28;20028;-82
2024/01/14 06:58:20;;;;;;;59.50;45.40;;;;;;;-1.76;100.00;99507.31;5061921;28;20083;-81
2024/01/14 07:00:46;;;;;;;63.67;46.08;;;;;;;-1.91;100.00;99504.56;5062909;28;20021;-82
2024/01/14 07:03:11;;;;;;;58.03;44.17;;;;;;;-2.01;100.00;99498.09;5060170;28;20063;-81
2024/01/14 07:05:37;;;;;;;58.03;44.35;;;;;;;-2.03;100.00;99481.81;5059745;28;20101;-81
2024/01/14 07:08:04;;;;;;;59.90;46.00;;;;;;;-2.22;100.00;99477.41;5061846;28;20531;-80
2024/01/14 07:10:30;;;;;;;60.85;46.35;;;;;;;-2.00;100.00;99473.94;5059964;28;20103;-80
2024/01/14 07:12:56;;;;;;;60.25;46.08;;;;;;;-1.95;100.00;99465.06;5062095;28;20406;-80
2024/01/14 07:15:21;;;;;;;57.40;44.95;;;;;;;-1.99;100.00;99475.59;5044585;28;20036;-81
2024/01/14 07:17:47;;;;;;;61.17;46.45;;;;;;;-2.17;100.00;99469.47;5053193;28;20090;-81
2024/01/14 07:20:13;;;;;;;62.17;46.15;;;;;;;-2.13;100.00;99464.13;5063979;28;20702;-80
2024/01/14 07:22:38;;;;;;;60.95;45.90;;;;;;;-1.99;100.00;99457.50;5060482;28;20451;-80
2024/01/14 07:25:04;;;;;;;61.70;46.33;;;;;;;-1.88;100.00;99465.63;5059397;28;20024;-81
2024/01/14 07:27:30;;;;;;;60.88;45.33;;;;;;;-1.91;100.00;99465.75;5061082;28;20056;-81
2024/01/14 07:29:56;;;;;;;60.33;45.08;;;;;;;-1.86;100.00;99474.16;5058011;28;20489;-80
2024/01/14 07:32:21;;;;;;;59.45;46.45;;;;;;;-1.84;100.00;99477.53;5062030;28;20033;-82
2024/01/14 07:34:46;;;;;;;61.10;46.60;;;;;;;-1.80;100.00;99479.06;5060517;28;20381;-82
2024/01/14 07:37:12;;;;;;;59.58;45.75;;;;;;;-1.78;100.00;99478.09;5057717;28;20425;-81
2024/01/14 07:39:37;;;;;;;58.65;46.15;;;;;;;-1.70;100.00;99480.31;5059662;28;20029;-80
2024/01/14 07:42:04;;;;;;;58.58;45.75;;;;;;;-1.65;100.00;99486.97;5060928;28;20056;-80
2024/01/14 07:44:30;;;;;;;57.97;44.83;;;;;;;-1.63;100.00;99505.03;5059728;28;20025;-78
2024/01/14 07:46:56;;;;;;;60.38;44.88;;;;;;;-1.63;100.00;99527.47;5058185;28;20028;-80
2024/01/14 07:49:21;;;;;;;58.30;45.83;;;;;;;-1.54;100.00;99517.56;5060084;28;20040;-80
2024/01/14 07:51:47;;;;;;;60.47;45.60;;;;;;;-1.50;100.00;99528.59;5059383;28;20056;-77
2024/01/14 07:54:13;;;;;;;59.85;44.85;;;;;;;-1.63;100.00;99533.47;5046224;28;20500;-81
2024/01/14 07:56:38;;;;;;;61.10;47.35;;;;;;;-1.78;100.00;99549.69;5062436;28;20095;-80
2024/01/14 07:59:04;;;;;;;62.55;47.00;;;;;;;-1.78;100.00;99544.50;5057710;28;20396;-80
2024/01/14 08:01:30;;;;;;;62.00;47.50;;;;;;;-1.80;100.00;99551.47;5060437;28;20540;-79
2024/01/14 08:03:55;;;;;;;63.40;48.05;;;;;;;-1.70;100.00;99555.34;5061307;28;20037;-79
2024/01/14 08:06:22;;;;;;;65.97;48.25;;;;;;;-1.58;100.00;99557.41;5059758;28;20493;-79
2024/01/14 08:08:50;;;;;;;60.17;45.97;;;;;;;-1.48;100.00;99543.19;5063510;28;20082;-81
2024/01/14 08:11:16;;;;;;;59.50;46.88;;;;;;;-1.39;100.00;99545.34;5067793;28;20103;-81
2024/01/14 08:13:42;;;;;;;58.40;45.80;;;;;;;-1.36;100.00;99536.63;5064829;28;20037;-82
2024/01/14 08:16:08;;;;;;;60.28;45.08;;;;;;;-1.21;100.00;99532.47;5044376;28;20041;-83
2024/01/14 08:18:33;;;;;;;62.88;46.45;;;;;;;-1.11;100.00;99525.97;5058663;28;20036;-75
2024/01/14 08:21:00;;;;;;;59.88;44.47;;;;;;;-1.01;100.00;99512.53;5056713;28;20025;-75
2024/01/14 08:23:26;;;;;;;60.88;44.40;;;;;;;-0.92;100.00;99508.66;5060747;28;20033;-75
2024/01/14 08:25:52;;;;;;;60.13;44.05;;;;;;;-0.94;100.00;99507.88;5061950;28;20032;-74
2024/01/14 08:28:17;;;;;;;59.78;43.92;;;;;;;-0.89;100.00;99522.31;5060191;28;20033;-74
2024/01/14 08:30:43;;;;;;;58.35;43.67;;;;;;;-0.82;100.00;99512.47;5061329;28;20082;-75
2024/01/14 08:33:09;;;;;;;58.72;43.30;;;;;;;-0.73;100.00;99512.06;4358125;28;10000729;-74
2024/01/14 08:35:35;;;;;;;58.67;43.75;;;;;;;-0.66;100.00;99508.28;5057023;28;20096;-75
2024/01/14 08:38:00;;;;;;;59.00;43.42;;;;;;;-0.60;100.00;99502.78;5065766;28;20032;-76
2024/01/14 08:40:26;;;;;;;56.38;42.53;;;;;;;-0.53;100.00;99514.53;5064652;28;20025;-75
2024/01/14 08:42:52;;;;;;;55.83;42.03;;;;;;;-0.46;100.00;99515.06;5070235;28;20028;-78
2024/01/14 08:45:17;;;;;;;56.22;41.38;;;;;;;-0.37;100.00;99513.78;5069927;28;20029;-75
2024/01/14 08:47:43;;;;;;;54.80;41.03;;;;;;;-0.31;100.00;99513.50;5070007;28;20029;-75
2024/01/14 08:50:10;;;;;;;59.35;41.63;;;;;;;-0.34;100.00;99529.19;5038774;28;20036;-75
2024/01/14 08:52:37;;;;;;;62.97;44.22;;;;;;;-0.28;100.00;99534.06;5056500;28;20502;-77
2024/01/14 08:55:04;;;;;;;57.45;42.40;;;;;;;-0.27;100.00;99535.75;5041078;28;20052;-76
2024/01/14 08:57:30;;;;;;;58.38;41.42;;;;;;;-0.34;100.00;99536.94;5056488;28;20029;-76
2024/01/14 08:59:57;;;;;;;61.22;43.90;;;;;;;-0.37;100.00;99540.56;5056762;28;20036;-74
2024/01/14 09:02:22;;;;;;;56.40;41.65;;;;;;;-0.35;100.00;99537.91;5058465;28;20071;-76
2024/01/14 09:04:48;;;;;;;61.08;42.97;;;;;;;-0.36;100.00;99531.03;5056916;28;20057;-80
2024/01/14 09:07:13;;;;;;;61.03;43.05;;;;;;;-0.35;100.00;99528.34;5059435;28;20025;-76
2024/01/14 09:09:38;;;;;;;58.38;43.58;;;;;;;-0.39;100.00;99525.97;5056512;28;20063;-79
2024/01/14 09:12:04;;;;;;;58.03;42.95;;;;;;;-0.39;100.00;99542.38;5053202;28;20685;-76
2024/01/14 09:14:30;;;;;;;56.20;42.50;;;;;;;-0.36;100.00;99541.41;5059949;28;20149;-77
2024/01/14 09:16:55;;;;;;;58.63;43.42;;;;;;;-0.45;100.00;99537.47;5054577;28;20033;-77
2024/01/14 09:19:20;;;;;;;55.53;42.55;;;;;;;-0.56;100.00;99540.59;5054639;28;20139;-80
2024/01/14 09:21:46;;;;;;;58.63;42.83;;;;;;;-0.48;100.00;99538.50;5057366;28;20136;-76
2024/01/14 09:24:11;;;;;;;57.58;43.67;;;;;;;-0.30;100.00;99541.94;5055994;28;20539;-76
2024/01/14 09:26:38;;;;;;;58.42;41.72;;;;;;;-0.23;100.00;99542.44;5057953;28;20115;-76
2024/01/14 09:29:03;;;;;;;54.58;42.15;;;;;;;-0.29;100.00;99542.75;5053296;28;20056;-76
2024/01/14 09:31:29;;;;;;;56.38;40.78;;;;;;;-0.17;100.00;99539.56;5057684;28;20473;-78
2024/01/14 09:33:54;;;;;;;58.67;41.42;;;;;;;-0.13;100.00;99530.72;5055170;28;20116;-78
2024/01/14 09:36:20;;;;;;;54.10;40.17;;;;;;;0.05;100.00;99527.22;5060371;28;20082;-77
2024/01/14 09:38:45;;;;;;;58.80;41.22;;;;;;;0.18;100.00;99523.06;5053636;28;20040;-77
2024/01/14 09:41:46;;;;;;;55.92;41.13;;;;;;;0.12;100.00;99520.78;5058537;28;20048;-77
2024/01/14 09:44:18;;;;;;;53.72;39.22;;;;;;;0.34;100.00;99515.34;5042450;28;20151;-76
2024/01/14 09:46:44;;;;;;;54.55;40.40;;;;;;;0.40;100.00;99510.66;5056875;28;20083;-76
2024/01/14 09:49:11;;;;;;;52.80;41.13;;;;;;;0.46;100.00;99512.09;5050157;28;20587;-76
2024/01/14 09:51:37;;;;;;;57.63;41.95;;;;;;;0.55;100.00;99510.75;5060836;28;20174;-76
2024/01/14 09:54:02;;;;;;;59.45;41.55;;;;;;;0.61;100.00;99505.25;5045568;28;20106;-77
2024/01/14 09:56:33;;;;;;;53.05;40.08;;;;;;;0.71;100.00;99506.41;5059556;28;20032;-77
2024/01/14 09:59:00;;;;;;;54.70;39.90;;;;;;;0.76;100.00;99499.25;5070400;22;20051;-75
2024/01/14 10:01:30;;;;;;;53.38;38.47;;;;;;;0.81;100.00;99492.03;5065564;28;20040;-74
2024/01/14 10:04:03;;;;;;;;;;;;;;;0.83;100.00;99506.59;5063408;28;20564;-76
2024/01/14 10:06:29;;;;;;;53.47;39.55;;;;;;;0.91;100.00;99497.56;5060028;28;19928;-74
2024/01/14 10:08:56;;;;;;;52.08;38.50;;;;;;;0.90;100.00;99501.91;5061140;28;20128;-75
2024/01/14 10:11:21;;;;;;;55.55;39.85;;;;;;;0.83;100.00;99500.56;5065226;28;20116;-74
2024/01/14 10:13:48;;;;;;;49.92;37.22;;;;;;;0.83;100.00;99496.22;5061757;28;20127;-75
2024/01/14 10:16:14;;;;;;;55.15;38.95;;;;;;;0.81;100.00;99513.66;5066353;28;20039;-75
2024/01/14 10:18:39;;;;;;;50.38;36.80;;;;;;;0.78;100.00;99518.16;5060245;28;20029;-74
2024/01/14 10:21:05;;;;;;;50.80;37.72;;;;;;;0.77;100.00;99514.72;5062662;28;20132;-74
2024/01/14 10:23:31;;;;;;;53.03;38.03;;;;;;;0.74;100.00;99512.31;5067259;28;20173;-74
2024/01/14 10:26:03;;;;;;;55.45;39.22;;;;;;;0.66;100.00;99503.22;5046180;28;20138;-73
2024/01/14 10:28:37;;;;;;;55.85;40.60;;;;;;;0.60;100.00;99490.56;5056583;28;20037;-74
2024/01/14 10:31:03;;;;;;;55.30;41.03;;;;;;;0.65;100.00;99491.19;5065545;28;20033;-75
2024/01/14 10:33:34;;;;;;;60.50;42.83;;;;;;;0.72;100.00;99489.91;5067010;28;20468;-75
2024/01/14 10:36:00;;;;;;;57.42;42.13;;;;;;;0.82;100.00;99494.53;5061020;28;20052;-75
2024/01/14 10:38:25;;;;;;;60.58;42.85;;;;;;;1.02;100.00;99485.66;5065639;28;20028;-74
2024/01/14 10:40:52;;;;;;;55.17;41.15;;;;;;;1.21;100.00;99469.88;5061830;28;20040;-75
2024/01/14 10:43:18;;;;;;;59.30;40.80;;;;;;;1.52;100.00;99463.78;5064481;28;20122;-75
2024/01/14 10:45:49;;;;;;;55.13;40.90;;;;;;;1.72;100.00;99447.84;5061560;28;20052;-76
2024/01/14 10:48:20;;;;;;;52.65;39.28;;;;;;;1.95;100.00;99441.28;5065506;28;20043;-75
2024/01/14 10:50:51;;;;;;;50.72;35.88;;;;;;;1.98;100.00;99439.34;5057144;28;20032;-76
2024/01/14 10:53:24;;;;;;;48.65;35.70;;;;;;;1.95;100.00;99436.06;5065953;28;20048;-76
2024/01/14 10:56:00;;;;;;;51.70;36.65;;;;;;;1.92;100.00;99431.91;5064105;28;20044;-76
2024/01/14 10:58:30;;;;;;;53.05;37.15;;;;;;;1.96;100.00;99433.38;5056498;28;20040;-75
2024/01/14 11:01:01;;;;;;;53.17;37.40;;;;;;;1.99;100.00;99420.22;5063660;28;20040;-76
2024/01/14 11:03:28;;;;;;;54.85;36.90;;;;;;;2.04;100.00;99415.56;5061503;28;20060;-74